Time;durP1;ratioP1;P1;durP2;ratioP2;P2;SDS_P1;SDS_P2;PMS_P1;PMS_P2;Temp;Humidity;BMP_temperature;BMP_pressure;BME280_temperature;BME280_humidity;BME280_pressure;Samples;Min_cycle;Max_cycle;Signal;HPM_P1;HPM_P2
2022/03/09 00:01:41;;;;;;;58.28;43.72;;;23.90;99.90;;;;;;4162958;28;20060;-77
2022/03/09 00:03:46;;;;;;;51.88;39.25;;;23.90;99.90;;;;;;4163306;28;20053;-77
2022/03/09 00:05:56;;;;;;;48.08;37.83;;;23.90;99.90;;;;;;4165535;28;20107;-76
2022/03/09 00:08:10;;;;;;;47.70;38.42;;;24.00;99.90;;;;;;4150370;28;20038;-75
2022/03/09 00:10:19;;;;;;;48.72;36.63;;;24.00;99.90;;;;;;4178532;28;20629;-77
2022/03/09 00:12:24;;;;;;;51.65;39.58;;;24.00;99.90;;;;;;4166454;28;20171;-76
2022/03/09 00:14:32;;;;;;;48.03;37.90;;;24.00;99.90;;;;;;4167066;28;20161;-77
2022/03/09 00:16:43;;;;;;;49.88;39.13;;;24.10;99.90;;;;;;4172420;28;20041;-78
2022/03/09 00:18:48;;;;;;;49.25;38.55;;;24.10;99.90;;;;;;4178414;28;20463;-78
2022/03/09 00:21:12;;;;;;;53.20;37.83;;;24.10;99.90;;;;;;4176679;28;20045;-77
2022/03/09 00:23:39;;;;;;;46.50;35.83;;;24.10;99.90;;;;;;4170061;28;20091;-75
2022/03/09 00:25:45;;;;;;;39.65;32.17;;;24.20;99.70;;;;;;4166885;28;20819;-76
2022/03/09 00:27:53;;;;;;;37.83;31.35;;;24.30;99.10;;;;;;4167813;28;20045;-76
2022/03/09 00:29:58;;;;;;;37.78;30.05;;;24.30;98.60;;;;;;4167267;28;20046;-75
2022/03/09 00:32:04;;;;;;;30.55;26.08;;;24.30;98.40;;;;;;4167554;28;20037;-77
2022/03/09 00:34:13;;;;;;;29.63;26.38;;;24.30;97.60;;;;;;4164995;28;20080;-76
2022/03/09 00:36:17;;;;;;;29.42;25.23;;;24.30;97.60;;;;;;4167208;28;20087;-77
2022/03/09 00:38:22;;;;;;;28.42;24.48;;;24.30;97.40;;;;;;4167215;28;20045;-76
2022/03/09 00:40:30;;;;;;;29.33;22.73;;;24.30;97.20;;;;;;4167757;28;20141;-77
2022/03/09 00:42:36;;;;;;;29.27;23.55;;;24.40;96.90;;;;;;4166598;28;20771;-75
2022/03/09 00:44:40;;;;;;;26.20;22.63;;;24.40;96.90;;;;;;4164549;28;20049;-76
2022/03/09 00:46:49;;;;;;;27.60;21.52;;;24.50;96.70;;;;;;4168162;28;20045;-77
2022/03/09 00:48:53;;;;;;;28.08;22.23;;;24.50;96.60;;;;;;4167493;28;20038;-77
2022/03/09 00:50:58;;;;;;;31.85;22.45;;;24.60;96.30;;;;;;4168103;28;20051;-77
2022/03/09 00:53:06;;;;;;;31.02;22.27;;;24.60;96.50;;;;;;4168193;28;20049;-78
2022/03/09 00:55:14;;;;;;;27.80;21.60;;;24.60;96.50;;;;;;4159647;28;20496;-76
2022/03/09 00:57:18;;;;;;;26.17;21.77;;;24.60;96.50;;;;;;4166019;28;20064;-76
2022/03/09 00:59:27;;;;;;;25.63;21.33;;;24.80;96.40;;;;;;4167177;28;20053;-74
2022/03/09 01:01:31;;;;;;;27.63;22.48;;;24.80;96.30;;;;;;4167893;28;20038;-76
2022/03/09 01:03:36;;;;;;;22.77;19.35;;;24.80;96.10;;;;;;4167488;28;20088;-75
2022/03/09 01:05:45;;;;;;;22.85;19.67;;;24.90;95.90;;;;;;4156256;28;20048;-76
2022/03/09 01:07:49;;;;;;;24.25;19.65;;;25.00;95.80;;;;;;4163827;28;20504;-76
2022/03/09 01:09:54;;;;;;;25.77;20.58;;;25.10;95.60;;;;;;4166904;28;20108;-75
2022/03/09 01:12:03;;;;;;;26.00;18.85;;;25.10;95.60;;;;;;4167371;28;20038;-76
2022/03/09 01:14:08;;;;;;;26.23;20.55;;;25.10;95.40;;;;;;4168081;28;20069;-76
2022/03/09 01:16:14;;;;;;;28.00;19.90;;;25.20;94.90;;;;;;4171332;28;20037;-76
2022/03/09 01:18:22;;;;;;;22.08;18.05;;;25.10;94.90;;;;;;4169174;28;20049;-77
2022/03/09 01:20:29;;;;;;;23.60;17.65;;;25.10;94.50;;;;;;4163544;28;20060;-76
2022/03/09 01:22:33;;;;;;;22.63;17.38;;;25.10;94.50;;;;;;4158607;28;20064;-76
2022/03/09 01:24:39;;;;;;;23.50;17.42;;;25.20;94.50;;;;;;4167351;28;20408;-75
2022/03/09 01:26:46;;;;;;;28.27;17.83;;;25.30;94.50;;;;;;4175060;28;20099;-76
2022/03/09 01:28:51;;;;;;;21.73;17.50;;;25.30;94.40;;;;;;4169596;28;20196;-76
2022/03/09 01:30:57;;;;;;;22.48;17.73;;;25.40;94.30;;;;;;4169194;28;20060;-78
2022/03/09 01:33:04;;;;;;;22.30;17.63;;;25.40;94.30;;;;;;4185010;28;20056;-76
2022/03/09 01:35:09;;;;;;;23.63;18.20;;;25.40;94.20;;;;;;4178873;28;20049;-76
2022/03/09 01:37:15;;;;;;;25.35;18.77;;;25.50;94.40;;;;;;4166952;28;20042;-73
2022/03/09 01:39:20;;;;;;;26.48;17.77;;;25.60;94.30;;;;;;4193052;28;20053;-73
2022/03/09 01:41:27;;;;;;;25.23;17.77;;;25.60;94.40;;;;;;4166669;28;20639;-72
2022/03/09 01:43:33;;;;;;;22.98;17.50;;;25.60;94.50;;;;;;4173854;28;20162;-73
2022/03/09 01:45:40;;;;;;;93.47;21.83;;;25.70;94.50;;;;;;4173005;28;20499;-74
2022/03/09 01:47:44;;;;;;;73.75;20.73;;;25.70;94.10;;;;;;4171028;28;20103;-70
2022/03/09 01:49:51;;;;;;;34.25;16.88;;;25.70;93.90;;;;;;4178003;28;20041;-77
2022/03/09 01:51:58;;;;;;;30.88;16.27;;;25.70;93.20;;;;;;4169441;28;20057;-77
2022/03/09 01:54:04;;;;;;;24.45;15.02;;;25.60;93.00;;;;;;4169873;28;20045;-75
2022/03/09 01:56:10;;;;;;;22.02;15.50;;;25.70;92.70;;;;;;4178107;28;20137;-76
2022/03/09 01:58:16;;;;;;;21.13;14.93;;;25.70;92.80;;;;;;4177126;28;20050;-77
2022/03/09 02:00:22;;;;;;;18.58;15.05;;;25.90;92.80;;;;;;4173814;28;20672;-77
2022/03/09 02:02:28;;;;;;;23.17;15.43;;;25.90;92.80;;;;;;4173145;28;20041;-77
2022/03/09 02:04:36;;;;;;;22.45;15.60;;;25.90;92.70;;;;;;4174032;28;20041;-78
2022/03/09 02:06:40;;;;;;;22.40;15.45;;;25.90;93.10;;;;;;4175229;28;20060;-77
2022/03/09 02:11:05;;;;;;;20.88;15.38;;;25.80;92.90;;;;;;4169378;28;20060;-77
2022/03/09 02:13:10;;;;;;;21.00;15.52;;;25.90;93.10;;;;;;4172483;28;20109;-77
2022/03/09 02:15:16;;;;;;;23.27;15.68;;;26.00;92.90;;;;;;4172103;28;20523;-77
2022/03/09 02:17:27;;;;;;;21.73;15.80;;;26.10;92.50;;;;;;4171565;28;20103;-76
2022/03/09 02:19:31;;;;;;;20.17;14.40;;;26.20;92.30;;;;;;4170301;28;20441;-78
2022/03/09 02:21:39;;;;;;;20.38;14.82;;;26.20;92.10;;;;;;4171602;28;20046;-77
2022/03/09 02:23:45;;;;;;;20.45;15.73;;;26.30;92.30;;;;;;4171576;28;20546;-77
2022/03/09 02:25:51;;;;;;;21.17;15.05;;;26.40;92.40;;;;;;4171749;28;20049;-77
2022/03/09 02:28:00;;;;;;;21.42;15.77;;;26.40;92.30;;;;;;4152420;28;20046;-75
2022/03/09 02:30:08;;;;;;;21.33;15.70;;;26.40;92.50;;;;;;4171304;28;20034;-76
2022/03/09 02:32:12;;;;;;;18.63;14.82;;;26.50;92.70;;;;;;4170263;28;20049;-75
2022/03/09 02:34:16;;;;;;;22.65;15.98;;;26.60;92.70;;;;;;4167093;28;20041;-75
2022/03/09 02:36:21;;;;;;;23.15;15.18;;;26.60;92.70;;;;;;4169422;28;20802;-76
2022/03/09 02:38:25;;;;;;;21.60;15.30;;;26.70;92.60;;;;;;4169690;28;20057;-75
2022/03/09 02:40:32;;;;;;;20.02;15.40;;;26.70;92.50;;;;;;4151992;28;20041;-75
2022/03/09 02:42:38;;;;;;;22.02;16.10;;;26.80;92.60;;;;;;4169257;28;20041;-76
2022/03/09 02:44:45;;;;;;;18.92;15.50;;;26.80;92.50;;;;;;4169496;28;20107;-77
2022/03/09 02:46:50;;;;;;;20.30;14.68;;;26.90;92.40;;;;;;4166787;28;20045;-76
2022/03/09 02:48:56;;;;;;;22.15;16.23;;;27.00;92.30;;;;;;4171423;28;20042;-76
2022/03/09 02:51:00;;;;;;;20.58;15.65;;;27.00;91.80;;;;;;4171280;28;20046;-76
2022/03/09 02:53:07;;;;;;;22.80;15.70;;;27.00;91.70;;;;;;4171307;28;20034;-76
2022/03/09 02:55:13;;;;;;;20.48;14.70;;;27.10;91.80;;;;;;4169794;28;20060;-76
2022/03/09 02:57:18;;;;;;;22.58;15.98;;;27.10;91.80;;;;;;4168769;28;20068;-67
2022/03/09 02:59:24;;;;;;;19.83;15.75;;;27.20;91.80;;;;;;4166186;28;20053;-69
2022/03/09 03:01:31;;;;;;;19.55;16.60;;;27.10;91.40;;;;;;4167366;28;20061;-68
2022/03/09 03:03:35;;;;;;;20.50;16.63;;;27.00;91.10;;;;;;4168023;28;20049;-68
2022/03/09 03:05:42;;;;;;;21.48;17.55;;;27.00;91.40;;;;;;4163824;28;20042;-68
2022/03/09 03:07:49;;;;;;;21.38;17.05;;;27.10;91.50;;;;;;4167144;28;20045;-69
2022/03/09 03:09:53;;;;;;;20.70;18.00;;;27.20;91.40;;;;;;4168047;28;20045;-68
2022/03/09 03:12:00;;;;;;;20.67;17.60;;;27.20;91.10;;;;;;4168807;28;20049;-67
2022/03/09 03:14:06;;;;;;;23.27;18.45;;;27.20;91.10;;;;;;4165244;28;20050;-69
2022/03/09 03:16:11;;;;;;;23.73;18.27;;;27.30;90.90;;;;;;4168353;28;20049;-69
2022/03/09 03:18:20;;;;;;;21.52;18.58;;;27.30;90.20;;;;;;4165759;28;20749;-70
2022/03/09 03:20:26;;;;;;;23.88;19.58;;;27.20;90.00;;;;;;4165617;28;20635;-69
2022/03/09 03:22:31;;;;;;;23.75;19.45;;;27.20;90.30;;;;;;4165991;28;20830;-68
2022/03/09 03:24:37;;;;;;;23.92;19.95;;;27.30;90.80;;;;;;4165655;28;20527;-70
2022/03/09 03:26:45;;;;;;;21.70;19.02;;;27.30;91.10;;;;;;4166584;28;20037;-69
2022/03/09 03:28:49;;;;;;;22.55;18.83;;;27.40;91.00;;;;;;4166487;28;20060;-68
2022/03/09 03:30:56;;;;;;;23.50;18.67;;;27.50;90.90;;;;;;4158346;28;20053;-69
2022/03/09 03:33:02;;;;;;;24.90;19.15;;;27.50;88.70;;;;;;4166533;28;20052;-67
2022/03/09 03:35:08;;;;;;;20.30;18.02;;;27.60;90.00;;;;;;4166543;28;20049;-69
2022/03/09 03:37:14;;;;;;;21.90;17.75;;;27.80;89.40;;;;;;4161623;28;20057;-69
2022/03/09 03:39:20;;;;;;;18.23;16.27;;;27.80;90.10;;;;;;4172057;28;20516;-68
2022/03/09 03:41:25;;;;;;;21.33;17.02;;;27.90;89.80;;;;;;4166872;28;20466;-69
2022/03/09 03:43:31;;;;;;;21.25;16.58;;;27.90;89.20;;;;;;4165464;28;20238;-69
2022/03/09 03:45:37;;;;;;;20.00;16.38;;;27.90;86.70;;;;;;4166445;28;20046;-69
2022/03/09 03:47:42;;;;;;;22.65;17.33;;;27.80;87.60;;;;;;4166075;28;20076;-69
2022/03/09 03:49:49;;;;;;;22.40;17.50;;;27.90;88.10;;;;;;4165948;28;20802;-68
2022/03/09 03:51:55;;;;;;;21.80;17.27;;;28.00;88.20;;;;;;4166588;28;20087;-68
2022/03/09 03:54:00;;;;;;;23.10;17.33;;;28.10;87.50;;;;;;4166967;28;20051;-69
2022/03/09 03:56:09;;;;;;;20.13;17.15;;;28.10;88.00;;;;;;4166318;28;20459;-69
2022/03/09 03:58:16;;;;;;;24.15;17.40;;;28.10;87.70;;;;;;4168304;28;20045;-68
2022/03/09 04:00:20;;;;;;;19.67;15.85;;;28.20;87.50;;;;;;4166805;28;20068;-68
2022/03/09 04:02:26;;;;;;;20.10;16.33;;;28.30;87.70;;;;;;4166071;28;20049;-68
2022/03/09 04:04:33;;;;;;;21.95;15.60;;;28.30;87.20;;;;;;4166612;28;20480;-68
2022/03/09 04:06:39;;;;;;;18.63;15.27;;;28.20;87.00;;;;;;4166157;28;20634;-69
2022/03/09 04:08:50;;;;;;;17.85;15.95;;;28.20;87.30;;;;;;4172847;28;20075;-69
2022/03/09 04:10:57;;;;;;;20.05;15.75;;;28.30;88.00;;;;;;4167146;28;20065;-69
2022/03/09 04:13:04;;;;;;;23.73;16.27;;;28.40;87.70;;;;;;4161131;28;20124;-69
2022/03/09 04:15:10;;;;;;;19.95;15.00;;;28.50;88.30;;;;;;4164980;28;20037;-68
2022/03/09 04:17:16;;;;;;;20.35;16.50;;;28.60;87.20;;;;;;4165586;28;20449;-69
2022/03/09 04:19:23;;;;;;;17.48;15.57;;;28.60;87.50;;;;;;4165729;28;20047;-69
2022/03/09 04:21:28;;;;;;;21.05;15.25;;;28.60;87.50;;;;;;4164950;28;20053;-69
2022/03/09 04:23:35;;;;;;;16.80;14.55;;;28.60;85.60;;;;;;4161000;28;20864;-67
2022/03/09 04:25:44;;;;;;;20.25;16.05;;;28.70;86.60;;;;;;4164719;28;20056;-70
2022/03/09 04:27:51;;;;;;;18.85;14.68;;;28.80;86.80;;;;;;4165853;28;20751;-70
2022/03/09 04:29:57;;;;;;;19.02;14.60;;;28.90;87.30;;;;;;4169527;28;20455;-69
2022/03/09 04:32:02;;;;;;;18.48;14.63;;;28.90;87.40;;;;;;4165389;28;21574;-68
2022/03/09 04:34:07;;;;;;;18.48;14.77;;;29.00;86.90;;;;;;4165683;28;20049;-68
2022/03/09 04:36:14;;;;;;;22.40;14.60;;;28.90;87.30;;;;;;4163842;28;20045;-68
2022/03/09 04:38:19;;;;;;;15.88;13.00;;;28.90;88.20;;;;;;4162100;28;20084;-68
2022/03/09 04:40:23;;;;;;;15.93;13.57;;;29.00;87.00;;;;;;4164886;28;20045;-69
2022/03/09 04:42:30;;;;;;;18.02;14.00;;;29.10;87.70;;;;;;4164900;28;20559;-68
2022/03/09 04:44:35;;;;;;;19.88;13.15;;;29.20;86.60;;;;;;4165090;28;20612;-68
2022/03/09 04:46:41;;;;;;;15.80;13.25;;;29.30;86.30;;;;;;4162540;28;20117;-69
2022/03/09 04:48:50;;;;;;;16.45;14.52;;;29.40;86.30;;;;;;4164671;28;20586;-69
2022/03/09 04:50:55;;;;;;;19.65;13.52;;;29.40;86.30;;;;;;4164092;28;20403;-69
2022/03/09 04:52:59;;;;;;;20.52;15.40;;;29.50;86.10;;;;;;4159534;28;20054;-68
2022/03/09 04:55:07;;;;;;;18.65;13.60;;;29.50;86.30;;;;;;4165014;28;20049;-69
2022/03/09 04:57:11;;;;;;;18.52;12.98;;;29.50;86.20;;;;;;4164693;28;20065;-68
2022/03/09 04:59:17;;;;;;;15.90;12.80;;;29.40;85.10;;;;;;4164576;28;20049;-68
2022/03/09 05:01:24;;;;;;;16.77;12.82;;;29.40;85.30;;;;;;4164862;28;20057;-69
2022/03/09 05:03:28;;;;;;;18.55;14.43;;;29.50;85.90;;;;;;4147231;28;20100;-70
2022/03/09 05:05:40;;;;;;;17.33;13.18;;;29.50;85.70;;;;;;4162743;28;20069;-69
2022/03/09 05:07:46;;;;;;;15.02;11.98;;;29.50;84.60;;;;;;4164554;28;20033;-68
2022/03/09 05:09:50;;;;;;;16.48;12.80;;;29.60;85.40;;;;;;4162974;28;20530;-68
2022/03/09 05:11:57;;;;;;;15.55;12.00;;;29.60;84.80;;;;;;4163946;28;20080;-68
2022/03/09 05:14:01;;;;;;;14.90;11.77;;;29.70;85.40;;;;;;4165168;28;20061;-68
2022/03/09 05:16:07;;;;;;;14.85;12.15;;;29.80;85.20;;;;;;4160859;28;20110;-69
2022/03/09 05:18:15;;;;;;;14.27;11.77;;;29.90;84.30;;;;;;4168562;28;20055;-67
2022/03/09 05:20:24;;;;;;;15.38;12.35;;;29.90;84.50;;;;;;4166875;28;20077;-68
2022/03/09 05:22:28;;;;;;;15.25;11.35;;;30.00;83.20;;;;;;4169155;28;20103;-67
2022/03/09 05:24:35;;;;;;;13.65;10.77;;;29.90;81.30;;;;;;4168734;28;20071;-68
2022/03/09 05:26:39;;;;;;;13.90;11.20;;;29.90;82.50;;;;;;4167011;28;20382;-68
2022/03/09 05:28:43;;;;;;;12.90;10.18;;;30.00;83.30;;;;;;4168810;28;20037;-68
2022/03/09 05:30:48;;;;;;;15.15;10.35;;;30.00;81.00;;;;;;4165453;28;20512;-69
2022/03/09 05:32:55;;;;;;;15.25;9.35;;;30.10;79.50;;;;;;4168815;28;20037;-69
2022/03/09 05:34:59;;;;;;;14.10;10.35;;;30.10;79.50;;;;;;4169048;28;20500;-67
2022/03/09 05:37:06;;;;;;;14.57;10.57;;;30.20;80.50;;;;;;4168681;28;20204;-69
2022/03/09 05:39:12;;;;;;;13.27;10.27;;;30.20;81.20;;;;;;4168040;28;20052;-69
2022/03/09 05:41:16;;;;;;;11.60;10.05;;;30.30;80.80;;;;;;4160772;28;20063;-68
2022/03/09 05:43:21;;;;;;;13.23;9.75;;;30.40;80.90;;;;;;4167758;28;20049;-68
2022/03/09 05:45:25;;;;;;;16.05;10.57;;;30.50;81.10;;;;;;4166068;28;20053;-68
2022/03/09 05:47:30;;;;;;;16.98;10.52;;;30.50;80.80;;;;;;4167190;28;20045;-68
2022/03/09 05:49:36;;;;;;;16.63;10.25;;;30.60;79.60;;;;;;4167287;28;20037;-68
2022/03/09 05:51:43;;;;;;;12.02;8.80;;;30.50;79.00;;;;;;4167088;28;20069;-66
2022/03/09 05:53:48;;;;;;;15.32;9.95;;;30.60;77.20;;;;;;4168814;28;20605;-68
2022/03/09 05:55:55;;;;;;;13.68;9.35;;;30.50;78.20;;;;;;4167868;28;20323;-68
2022/03/09 05:58:02;;;;;;;15.98;10.18;;;30.60;78.10;;;;;;4166554;28;20516;-68
2022/03/09 06:00:08;;;;;;;15.15;11.38;;;30.70;78.90;;;;;;4163893;28;20045;-69
2022/03/09 06:02:15;;;;;;;13.73;10.45;;;30.60;79.30;;;;;;4165837;28;20041;-69
2022/03/09 06:04:23;;;;;;;16.00;11.07;;;30.70;79.10;;;;;;4150553;28;20459;-68
2022/03/09 06:06:27;;;;;;;15.57;10.55;;;30.80;78.50;;;;;;4168305;28;20045;-68
2022/03/09 06:08:34;;;;;;;13.38;10.00;;;30.80;79.30;;;;;;4166710;28;20087;-68
2022/03/09 06:10:43;;;;;;;13.73;9.75;;;30.80;79.20;;;;;;4166960;28;20037;-67
2022/03/09 06:12:49;;;;;;;15.65;10.40;;;30.90;79.00;;;;;;4166391;28;20106;-66
2022/03/09 06:14:55;;;;;;;11.93;9.50;;;30.90;78.30;;;;;;4167779;28;20037;-68
2022/03/09 06:17:08;;;;;;;13.25;9.95;;;30.90;77.80;;;;;;4170785;28;20041;-68
2022/03/09 06:19:12;;;;;;;13.05;9.48;;;30.90;77.40;;;;;;4170665;28;20091;-68
2022/03/09 06:21:21;;;;;;;13.63;9.38;;;30.90;77.70;;;;;;4167028;28;20144;-68
2022/03/09 06:23:30;;;;;;;13.88;8.80;;;31.00;77.70;;;;;;4168115;28;20046;-68
2022/03/09 06:25:35;;;;;;;14.10;8.98;;;31.00;77.50;;;;;;4167338;28;20045;-68
2022/03/09 06:27:46;;;;;;;17.45;9.15;;;31.10;77.50;;;;;;4167069;28;20052;-67
2022/03/09 06:29:55;;;;;;;12.05;8.50;;;31.20;76.90;;;;;;4167305;28;20432;-68
2022/03/09 06:32:00;;;;;;;12.60;8.68;;;31.20;76.60;;;;;;4162272;28;20045;-68
2022/03/09 06:34:07;;;;;;;13.57;8.95;;;31.20;76.00;;;;;;4167230;28;20124;-68
2022/03/09 06:36:13;;;;;;;9.45;7.82;;;31.30;75.20;;;;;;4167075;28;20052;-67
2022/03/09 06:38:18;;;;;;;12.50;9.02;;;31.20;75.60;;;;;;4166498;28;20064;-68
2022/03/09 06:40:25;;;;;;;13.48;9.05;;;31.30;76.30;;;;;;4167413;28;20088;-69
2022/03/09 06:42:29;;;;;;;13.65;9.23;;;31.40;76.40;;;;;;4167206;28;20415;-68
2022/03/09 06:44:35;;;;;;;15.00;9.35;;;31.50;75.80;;;;;;4166313;28;20056;-67
2022/03/09 06:46:42;;;;;;;12.50;9.68;;;31.50;76.10;;;;;;4167651;28;20041;-70
2022/03/09 06:48:48;;;;;;;14.50;9.65;;;31.50;75.50;;;;;;4167072;28;20049;-67
2022/03/09 06:50:53;;;;;;;13.27;9.23;;;31.60;75.10;;;;;;4159336;28;20045;-67
2022/03/09 06:53:00;;;;;;;15.02;9.48;;;31.60;75.80;;;;;;4166024;28;20132;-67
2022/03/09 06:55:08;;;;;;;14.00;10.00;;;31.60;75.70;;;;;;4165202;28;20144;-68
2022/03/09 06:57:13;;;;;;;14.55;9.93;;;31.60;75.40;;;;;;4166992;28;20044;-69
2022/03/09 06:59:19;;;;;;;12.88;10.23;;;31.50;75.60;;;;;;4166426;28;20777;-68
2022/03/09 07:01:26;;;;;;;16.25;9.50;;;31.60;76.00;;;;;;4166226;28;20096;-69
2022/03/09 07:03:31;;;;;;;13.32;9.82;;;31.60;76.00;;;;;;4167249;28;20050;-67
2022/03/09 07:05:38;;;;;;;13.38;10.05;;;31.60;76.00;;;;;;4167041;28;20044;-68
2022/03/09 07:07:44;;;;;;;12.45;9.75;;;31.60;76.10;;;;;;4166145;28;20045;-67
2022/03/09 07:09:49;;;;;;;14.90;10.25;;;31.60;76.40;;;;;;4170332;28;20045;-68
2022/03/09 07:11:57;;;;;;;13.63;10.07;;;31.70;76.50;;;;;;4174476;28;20045;-67
2022/03/09 07:14:03;;;;;;;13.93;10.43;;;31.70;76.20;;;;;;4191240;28;20055;-67
2022/03/09 07:16:07;;;;;;;13.13;9.98;;;31.70;76.10;;;;;;4166601;28;20109;-67
2022/03/09 07:18:15;;;;;;;12.95;10.15;;;31.70;76.60;;;;;;4165192;28;20041;-67
2022/03/09 07:20:19;;;;;;;13.18;9.73;;;31.70;76.50;;;;;;4165847;28;20057;-67
2022/03/09 07:22:25;;;;;;;11.00;9.48;;;31.70;76.10;;;;;;4167025;28;20053;-68
2022/03/09 07:24:32;;;;;;;12.75;8.93;;;31.70;76.30;;;;;;4168080;28;20048;-69
2022/03/09 07:26:41;;;;;;;15.27;10.07;;;31.70;76.20;;;;;;4165187;28;20400;-69
2022/03/09 07:28:45;;;;;;;11.85;10.32;;;31.70;76.10;;;;;;4166704;28;20055;-69
2022/03/09 07:30:51;;;;;;;16.05;10.32;;;31.70;76.40;;;;;;4171233;28;20048;-68
2022/03/09 07:32:58;;;;;;;12.93;10.43;;;31.70;77.10;;;;;;4167076;28;20041;-69
2022/03/09 07:35:02;;;;;;;18.10;10.20;;;31.70;77.00;;;;;;4166372;28;20080;-69
2022/03/09 07:37:09;;;;;;;17.13;11.25;;;31.70;76.40;;;;;;4162107;28;20047;-69
2022/03/09 07:39:15;;;;;;;11.32;10.13;;;31.80;76.30;;;;;;4166288;28;20063;-68
2022/03/09 07:41:21;;;;;;;13.27;10.63;;;31.80;76.20;;;;;;4165662;28;20057;-69
2022/03/09 07:43:29;;;;;;;14.48;9.93;;;31.70;76.20;;;;;;4165654;28;20128;-69
2022/03/09 07:45:35;;;;;;;14.57;11.13;;;31.80;76.60;;;;;;4166425;28;20041;-68
2022/03/09 07:47:40;;;;;;;18.38;11.18;;;31.80;77.30;;;;;;4166477;28;20039;-70
2022/03/09 07:49:46;;;;;;;15.50;11.15;;;31.80;77.40;;;;;;4166479;28;20144;-67
2022/03/09 07:51:52;;;;;;;14.25;11.23;;;31.80;78.00;;;;;;4166312;28;20135;-68
2022/03/09 07:53:57;;;;;;;17.98;11.25;;;31.70;77.90;;;;;;4166535;28;20044;-67
2022/03/09 07:56:01;;;;;;;16.50;10.98;;;31.80;78.20;;;;;;4166623;28;20045;-69
2022/03/09 07:58:08;;;;;;;16.63;11.05;;;31.80;77.80;;;;;;4166102;28;20136;-68
2022/03/09 08:00:13;;;;;;;14.30;10.55;;;31.80;78.30;;;;;;4158722;28;20045;-68
2022/03/09 08:02:21;;;;;;;14.63;10.15;;;31.70;77.10;;;;;;4170796;28;20443;-67
2022/03/09 08:04:27;;;;;;;15.57;10.23;;;31.70;77.20;;;;;;4160486;28;20191;-68
2022/03/09 08:06:32;;;;;;;14.07;10.45;;;31.70;76.40;;;;;;4166671;28;20046;-69
2022/03/09 08:08:38;;;;;;;14.00;10.45;;;31.70;74.80;;;;;;4166120;28;20461;-68
2022/03/09 08:10:45;;;;;;;12.55;10.40;;;31.60;75.60;;;;;;4166068;28;20092;-68
2022/03/09 08:12:49;;;;;;;13.20;10.32;;;31.60;75.00;;;;;;4166295;28;20380;-68
2022/03/09 08:14:56;;;;;;;14.82;10.00;;;31.60;75.80;;;;;;4166826;28;20037;-68
2022/03/09 08:17:02;;;;;;;12.15;10.02;;;31.50;75.10;;;;;;4165857;28;20041;-67
2022/03/09 08:19:07;;;;;;;13.45;9.98;;;31.40;75.10;;;;;;4166455;28;20508;-68
2022/03/09 08:21:15;;;;;;;14.05;10.45;;;31.40;74.80;;;;;;4170080;28;20514;-67
2022/03/09 08:23:23;;;;;;;18.40;10.05;;;31.30;75.60;;;;;;4158692;28;20550;-67
2022/03/09 08:25:27;;;;;;;16.95;10.57;;;31.30;75.80;;;;;;4164891;28;20065;-68
2022/03/09 08:27:32;;;;;;;13.25;10.27;;;31.40;75.00;;;;;;4165943;28;20715;-69
2022/03/09 08:29:36;;;;;;;15.00;10.20;;;31.40;75.40;;;;;;4163262;28;20045;-67
2022/03/09 08:31:41;;;;;;;11.93;9.65;;;31.40;75.60;;;;;;4168693;28;20041;-68
2022/03/09 08:33:51;;;;;;;14.32;9.65;;;31.50;74.90;;;;;;4165750;28;20045;-67
2022/03/09 08:35:55;;;;;;;12.82;9.90;;;31.50;75.00;;;;;;4163717;28;20046;-68
2022/03/09 08:38:00;;;;;;;17.48;10.93;;;31.50;75.40;;;;;;4165442;28;20095;-68
2022/03/09 08:40:07;;;;;;;11.93;9.75;;;31.50;75.40;;;;;;4165994;28;20052;-68
2022/03/09 08:42:11;;;;;;;14.50;10.70;;;31.50;75.80;;;;;;4163640;28;20076;-68
2022/03/09 08:44:16;;;;;;;15.85;11.00;;;31.50;76.50;;;;;;4165372;28;20132;-69
2022/03/09 08:46:26;;;;;;;13.25;10.57;;;31.50;76.80;;;;;;4164818;28;20083;-68
2022/03/09 08:48:30;;;;;;;16.60;10.68;;;31.50;76.80;;;;;;4166188;28;20050;-67
2022/03/09 08:50:35;;;;;;;15.10;10.90;;;31.50;77.30;;;;;;4165146;28;20037;-67
2022/03/09 08:52:43;;;;;;;13.52;10.75;;;31.50;77.20;;;;;;4167914;28;20081;-67
2022/03/09 08:54:48;;;;;;;13.70;11.32;;;31.50;77.10;;;;;;4167917;28;20056;-68
2022/03/09 08:56:53;;;;;;;12.63;10.70;;;31.40;77.10;;;;;;4164582;28;20056;-68
2022/03/09 08:59:00;;;;;;;16.08;10.90;;;31.40;77.40;;;;;;4167975;28;20103;-69
2022/03/09 09:01:04;;;;;;;15.85;10.50;;;31.40;77.50;;;;;;4168679;28;20045;-67
2022/03/09 09:03:20;;;;;;;12.80;10.43;;;31.40;77.20;;;;;;4167283;28;20050;-69
2022/03/09 09:05:28;;;;;;;14.40;10.88;;;31.40;77.00;;;;;;4168968;28;20476;-68
2022/03/09 09:07:33;;;;;;;16.08;11.43;;;31.40;76.90;;;;;;4167640;28;20534;-67
2022/03/09 09:09:37;;;;;;;15.93;11.93;;;31.40;76.90;;;;;;4168717;28;20048;-68
2022/03/09 09:11:44;;;;;;;15.15;11.35;;;31.40;77.20;;;;;;4171758;28;20128;-67
2022/03/09 09:13:48;;;;;;;16.90;12.20;;;31.40;76.80;;;;;;4169468;28;20419;-67
2022/03/09 09:15:53;;;;;;;14.98;11.05;;;31.40;76.80;;;;;;4167261;28;20073;-67
2022/03/09 09:18:00;;;;;;;16.13;10.95;;;31.40;77.00;;;;;;4168096;28;20100;-67
2022/03/09 09:20:25;;;;;;;16.33;11.98;;;31.40;77.10;;;;;;4168243;28;20168;-68
2022/03/09 09:22:30;;;;;;;18.25;12.18;;;31.40;77.50;;;;;;4167856;28;20091;-67
2022/03/09 09:25:01;;;;;;;14.75;11.35;;;31.40;77.80;;;;;;4128539;28;20101;-68
2022/03/09 09:27:05;;;;;;;15.35;10.75;;;31.40;77.40;;;;;;4133813;28;20129;-68
2022/03/09 09:29:11;;;;;;;16.83;11.70;;;31.30;77.70;;;;;;4133552;28;20093;-68
2022/03/09 09:31:24;;;;;;;14.73;11.27;;;31.30;77.80;;;;;;4132889;28;20384;-68
2022/03/09 09:33:28;;;;;;;16.33;11.70;;;31.30;78.10;;;;;;4125222;28;20509;-68
2022/03/09 09:35:33;;;;;;;14.70;11.43;;;31.30;78.30;;;;;;4133086;28;20095;-69
2022/03/09 09:37:43;;;;;;;13.68;11.05;;;31.30;78.40;;;;;;4126026;28;20112;-67
2022/03/09 09:39:48;;;;;;;13.57;11.05;;;31.30;78.40;;;;;;4133091;28;20050;-68
2022/03/09 09:41:52;;;;;;;12.85;11.18;;;31.30;78.20;;;;;;4133720;28;20081;-67
2022/03/09 09:44:01;;;;;;;14.38;10.98;;;31.30;78.10;;;;;;4137550;28;20392;-67
2022/03/09 09:46:06;;;;;;;13.80;11.55;;;31.20;77.80;;;;;;4132617;28;20093;-67
2022/03/09 09:48:10;;;;;;;17.38;12.05;;;31.30;77.80;;;;;;4136272;28;20130;-68
2022/03/09 09:50:18;;;;;;;16.05;11.60;;;31.20;77.60;;;;;;4131894;28;20046;-68
2022/03/09 09:52:26;;;;;;;15.25;11.35;;;31.10;78.00;;;;;;4131441;28;20054;-68
2022/03/09 09:54:30;;;;;;;16.33;12.27;;;31.10;78.10;;;;;;4132099;28;20405;-67
2022/03/09 09:56:38;;;;;;;14.48;11.43;;;31.10;78.00;;;;;;4156953;28;20059;-67
2022/03/09 09:58:43;;;;;;;17.58;11.35;;;31.10;78.30;;;;;;4159430;28;20045;-68
2022/03/09 10:00:47;;;;;;;17.55;11.55;;;31.10;78.40;;;;;;4165214;28;20048;-68
2022/03/09 10:02:52;;;;;;;13.60;11.65;;;31.10;78.60;;;;;;4162643;28;20127;-68
2022/03/09 10:04:56;;;;;;;16.30;11.75;;;31.10;78.90;;;;;;4166421;28;20529;-67
2022/03/09 10:07:01;;;;;;;20.25;12.52;;;31.10;79.10;;;;;;4167627;28;20041;-68
2022/03/09 10:09:11;;;;;;;17.33;12.15;;;31.10;79.30;;;;;;4167476;28;20088;-68
2022/03/09 10:11:15;;;;;;;15.23;12.15;;;31.10;79.60;;;;;;4167439;28;20460;-68
2022/03/09 10:13:21;;;;;;;15.82;11.68;;;31.10;79.60;;;;;;4165729;28;21723;-69
2022/03/09 10:15:30;;;;;;;13.25;11.55;;;31.00;79.30;;;;;;4164866;28;20072;-68
2022/03/09 10:17:36;;;;;;;15.15;11.60;;;31.00;79.00;;;;;;4166347;28;20408;-68
2022/03/09 10:19:43;;;;;;;15.60;11.27;;;31.00;79.00;;;;;;4167700;28;20053;-68
2022/03/09 10:21:50;;;;;;;14.07;11.73;;;31.00;79.20;;;;;;4167421;28;20072;-68
2022/03/09 10:23:56;;;;;;;18.52;12.10;;;31.00;79.60;;;;;;4169658;28;20049;-70
2022/03/09 10:26:01;;;;;;;15.27;11.57;;;31.00;81.20;;;;;;4166791;28;20037;-68
2022/03/09 10:28:10;;;;;;;16.73;11.77;;;30.90;80.50;;;;;;4167750;28;20056;-70
2022/03/09 10:30:22;;;;;;;18.45;12.23;;;30.90;80.60;;;;;;4168749;28;20121;-67
2022/03/09 10:32:59;;;;;;;18.92;13.60;;;30.90;80.60;;;;;;4173814;28;20041;-70
2022/03/09 10:35:07;;;;;;;16.45;13.70;;;30.80;80.80;;;;;;4162924;28;20041;-71
2022/03/09 10:37:12;;;;;;;17.83;13.57;;;30.80;81.20;;;;;;4170088;28;20049;-70
2022/03/09 10:39:17;;;;;;;21.70;14.02;;;30.80;81.40;;;;;;4169595;28;20054;-72
2022/03/09 10:41:33;;;;;;;19.20;13.98;;;30.80;81.40;;;;;;4167145;28;20054;-68
2022/03/09 10:43:37;;;;;;;19.67;13.32;;;30.70;81.50;;;;;;4166293;28;20045;-67
2022/03/09 10:46:06;;;;;;;19.80;14.18;;;30.70;81.50;;;;;;4167725;28;20061;-65